Time;durP1;ratioP1;P1;durP2;ratioP2;P2;SDS_P1;SDS_P2;PMS_P1;PMS_P2;Temp;Humidity;BMP_temperature;BMP_pressure;BME280_temperature;BME280_humidity;BME280_pressure;Samples;Min_cycle;Max_cycle;Signal;HPM_P1;HPM_P2
2023/09/25 00:01:41;0.00;0.00;0.62;0.00;0.00;0.62;2.20;1.47;;;23.20;29.40;;;;;;2272752;60;20408;-51
2023/09/25 00:04:28;0.00;0.00;0.62;0.00;0.00;0.62;2.33;1.53;;;23.30;29.40;;;;;;2272511;60;20362;-56
2023/09/25 00:07:12;0.00;0.00;0.62;0.00;0.00;0.62;3.23;1.90;;;23.30;29.40;;;;;;2272651;60;20451;-53
2023/09/25 00:09:57;0.00;0.00;0.62;0.00;0.00;0.62;2.50;1.77;;;23.30;29.40;;;;;;2272121;60;20432;-56
2023/09/25 00:12:44;0.00;0.00;0.62;0.00;0.00;0.62;2.90;2.00;;;23.30;29.30;;;;;;2271837;60;20450;-55
2023/09/25 00:15:28;0.00;0.00;0.62;0.00;0.00;0.62;1.80;1.40;;;23.40;29.40;;;;;;2272676;61;20362;-57
2023/09/25 00:18:14;0.00;0.00;0.62;0.00;0.00;0.62;2.73;1.57;;;23.40;29.40;;;;;;2272188;60;20398;-61
2023/09/25 00:20:58;0.00;0.00;0.62;0.00;0.00;0.62;1.90;1.70;;;23.40;29.40;;;;;;2272671;61;20378;-56
2023/09/25 00:23:43;0.00;0.00;0.62;0.00;0.00;0.62;2.20;1.70;;;23.50;29.50;;;;;;2272000;60;20428;-65
2023/09/25 00:26:27;0.00;0.00;0.62;0.00;0.00;0.62;2.33;1.77;;;23.50;29.50;;;;;;2271861;60;20362;-59
2023/09/25 00:29:14;0.00;0.00;0.62;0.00;0.00;0.62;2.70;1.60;;;23.50;29.40;;;;;;2272014;60;20423;-54
2023/09/25 00:31:58;0.00;0.00;0.62;0.00;0.00;0.62;2.30;1.70;;;23.60;29.40;;;;;;2272302;60;20397;-52
2023/09/25 00:34:43;0.00;0.00;0.62;0.00;0.00;0.62;2.13;1.60;;;23.60;29.30;;;;;;2271858;60;20408;-49
2023/09/25 00:37:29;0.00;0.00;0.62;0.00;0.00;0.62;1.93;1.40;;;23.60;29.10;;;;;;2272009;60;20361;-58
2023/09/25 00:40:17;0.00;0.00;0.62;0.00;0.00;0.62;2.70;1.80;;;23.70;29.20;;;;;;2271954;60;20784;-50
2023/09/25 00:43:04;0.00;0.00;0.62;0.00;0.00;0.62;2.80;1.63;;;23.70;29.20;;;;;;2272395;60;20342;-52
2023/09/25 00:45:50;0.00;0.00;0.62;0.00;0.00;0.62;2.00;1.50;;;23.70;29.20;;;;;;2272472;60;20366;-54
2023/09/25 00:48:35;0.00;0.00;0.62;0.00;0.00;0.62;2.40;1.70;;;23.80;29.00;;;;;;2271954;61;20902;-49
2023/09/25 00:51:20;0.00;0.00;0.62;0.00;0.00;0.62;2.37;1.73;;;23.80;28.90;;;;;;2271775;60;20393;-53
2023/09/25 00:54:05;0.00;0.00;0.62;0.00;0.00;0.62;2.43;1.70;;;23.80;28.80;;;;;;2273193;60;20362;-53
2023/09/25 00:56:50;0.00;0.00;0.62;0.00;0.00;0.62;2.10;1.70;;;23.70;28.70;;;;;;2272902;60;20867;-63
2023/09/25 00:59:38;0.00;0.00;0.62;0.00;0.00;0.62;2.33;1.77;;;23.80;28.70;;;;;;2272410;60;20417;-56
2023/09/25 01:02:24;0.00;0.00;0.62;0.00;0.00;0.62;2.10;1.77;;;23.80;28.70;;;;;;2272962;60;20374;-53
2023/09/25 01:05:09;0.00;0.00;0.62;0.00;0.00;0.62;2.60;1.70;;;23.80;28.70;;;;;;2273209;60;20366;-57
2023/09/25 01:07:54;0.00;0.00;0.62;0.00;0.00;0.62;2.60;1.87;;;23.70;28.60;;;;;;2272844;60;20362;-56
2023/09/25 01:10:41;0.00;0.00;0.62;0.00;0.00;0.62;2.60;2.00;;;23.70;28.50;;;;;;2272561;60;20389;-66
2023/09/25 01:13:28;0.00;0.00;0.62;0.00;0.00;0.62;2.93;1.90;;;23.70;28.50;;;;;;2272990;60;20381;-60
2023/09/25 01:16:13;0.00;0.00;0.62;0.00;0.00;0.62;2.13;1.33;;;23.70;28.60;;;;;;2273087;60;20362;-53
2023/09/25 01:19:00;0.00;0.00;0.62;0.00;0.00;0.62;2.47;1.53;;;23.60;28.60;;;;;;2272469;60;20362;-53
2023/09/25 01:21:46;0.00;0.00;0.62;0.00;0.00;0.62;2.00;1.30;;;23.60;28.60;;;;;;2272676;60;20366;-55
2023/09/25 01:24:31;0.00;0.00;0.62;0.00;0.00;0.62;2.77;1.60;;;23.60;28.70;;;;;;2272950;60;20366;-53
2023/09/25 01:27:16;0.00;0.00;0.62;0.00;0.00;0.62;2.80;1.30;;;23.60;28.80;;;;;;2273044;60;20370;-55
2023/09/25 01:30:01;0.00;0.00;0.62;0.00;0.00;0.62;1.50;1.13;;;23.60;28.70;;;;;;2271874;60;20381;-55
2023/09/25 01:32:48;0.00;0.00;0.62;0.00;0.00;0.62;2.80;1.90;;;23.50;28.70;;;;;;2272355;60;20407;-55
2023/09/25 01:35:32;0.00;0.00;0.62;0.00;0.00;0.62;1.93;1.37;;;23.50;28.70;;;;;;2272668;60;20432;-55
2023/09/25 01:38:18;0.00;0.00;0.62;0.00;0.00;0.62;2.87;1.70;;;23.50;28.70;;;;;;2272780;60;20767;-52
2023/09/25 01:41:04;0.00;0.00;0.62;0.00;0.00;0.62;2.47;1.60;;;23.50;28.70;;;;;;2272312;60;20420;-54
2023/09/25 01:43:48;0.00;0.00;0.62;0.00;0.00;0.62;2.37;1.70;;;23.50;28.80;;;;;;2273141;60;20367;-57
2023/09/25 01:46:36;0.00;0.00;0.62;0.00;0.00;0.62;1.90;1.37;;;23.50;28.70;;;;;;2271648;60;20419;-61
2023/09/25 01:49:21;0.00;0.00;0.62;0.00;0.00;0.62;2.43;1.77;;;23.50;28.70;;;;;;2268496;61;20367;-56
2023/09/25 01:52:07;0.00;0.00;0.62;0.00;0.00;0.62;2.27;1.63;;;23.50;28.70;;;;;;2268665;61;20441;-58
2023/09/25 01:54:53;0.00;0.00;0.62;0.00;0.00;0.62;2.27;1.73;;;23.50;28.80;;;;;;2268779;61;20392;-57
2023/09/25 01:57:38;0.00;0.00;0.62;0.00;0.00;0.62;2.47;1.60;;;23.50;28.80;;;;;;2268817;61;20725;-54
2023/09/25 02:00:22;0.00;0.00;0.62;0.00;0.00;0.62;1.77;1.40;;;23.50;28.80;;;;;;2268396;61;20934;-58
2023/09/25 02:03:07;0.00;0.00;0.62;0.00;0.00;0.62;1.80;1.60;;;23.50;28.70;;;;;;2268046;61;20366;-55
2023/09/25 02:05:56;0.00;0.00;0.62;0.00;0.00;0.62;2.70;1.60;;;23.50;28.60;;;;;;2268859;61;21019;-53
2023/09/25 02:08:41;0.00;0.00;0.62;0.00;0.00;0.62;3.30;1.70;;;23.50;28.50;;;;;;2268431;61;20937;-54
2023/09/25 02:11:27;0.00;0.00;0.62;0.00;0.00;0.62;1.70;1.27;;;23.50;28.50;;;;;;2265318;61;20383;-52
2023/09/25 02:14:11;0.00;0.00;0.62;0.00;0.00;0.62;2.87;1.23;;;23.50;28.60;;;;;;2268204;61;20401;-56
2023/09/25 02:16:56;0.00;0.00;0.62;0.00;0.00;0.62;2.27;1.87;;;23.50;28.60;;;;;;2265300;61;20542;-57
2023/09/25 02:19:41;0.00;0.00;0.62;0.00;0.00;0.62;2.07;1.43;;;23.50;28.60;;;;;;2268468;61;20399;-57
2023/09/25 02:22:25;0.00;0.00;0.62;0.00;0.00;0.62;1.87;1.43;;;23.50;28.70;;;;;;2268238;61;20366;-60
2023/09/25 02:25:10;0.00;0.00;0.62;0.00;0.00;0.62;4.10;1.90;;;23.50;28.70;;;;;;2268487;61;20455;-58
2023/09/25 02:27:57;0.00;0.00;0.62;0.00;0.00;0.62;1.90;1.23;;;23.40;28.60;;;;;;2268379;61;20408;-56
2023/09/25 02:30:41;0.00;0.00;0.62;0.00;0.00;0.62;2.67;1.93;;;23.50;28.70;;;;;;2265533;61;21043;-52
2023/09/25 02:33:26;0.00;0.00;0.62;0.00;0.00;0.62;1.90;1.57;;;23.40;28.70;;;;;;2268603;61;20383;-51
2023/09/25 02:36:10;0.00;0.00;0.62;0.00;0.00;0.62;3.20;2.00;;;23.40;28.70;;;;;;2268675;61;20781;-55
2023/09/25 02:38:55;0.00;0.00;0.62;0.00;0.00;0.62;2.40;1.70;;;23.40;28.60;;;;;;2268138;61;20367;-61
2023/09/25 02:41:40;0.00;0.00;0.62;0.00;0.00;0.62;2.67;1.70;;;23.40;28.70;;;;;;2268713;61;20366;-59
2023/09/25 02:44:25;0.00;0.00;0.62;0.00;0.00;0.62;1.90;1.40;;;23.40;28.70;;;;;;2268907;61;20371;-56
2023/09/25 02:47:10;0.00;0.00;0.62;0.00;0.00;0.62;2.30;1.43;;;23.40;28.70;;;;;;2267832;61;20383;-59
2023/09/25 02:49:55;0.00;0.00;0.62;0.00;0.00;0.62;1.70;1.30;;;23.40;28.60;;;;;;2268397;61;20417;-55
2023/09/25 02:52:42;0.00;0.00;0.62;0.00;0.00;0.62;2.03;1.30;;;23.40;28.70;;;;;;2265384;61;20776;-57
2023/09/25 02:55:27;0.00;0.00;0.62;0.00;0.00;0.62;2.47;1.50;;;23.40;28.60;;;;;;2268430;61;20627;-56
2023/09/25 02:58:12;0.00;0.00;0.62;0.00;0.00;0.62;2.10;1.60;;;23.40;28.60;;;;;;2267886;61;20362;-58
2023/09/25 03:01:00;0.00;0.00;0.62;0.00;0.00;0.62;2.10;1.67;;;23.30;28.60;;;;;;2268385;61;20472;-53
2023/09/25 03:03:44;0.00;0.00;0.62;0.00;0.00;0.62;2.00;1.50;;;23.30;28.70;;;;;;2268611;61;20364;-55
2023/09/25 03:06:28;0.00;0.00;0.62;0.00;0.00;0.62;2.13;1.50;;;23.20;28.70;;;;;;2268247;61;20417;-56
2023/09/25 03:09:13;0.00;0.00;0.62;0.00;0.00;0.62;2.27;1.57;;;23.20;28.80;;;;;;2268107;61;20465;-55
2023/09/25 03:11:59;0.00;0.00;0.62;0.00;0.00;0.62;3.40;1.50;;;23.20;28.90;;;;;;2268400;61;20418;-58
2023/09/25 03:14:45;0.00;0.00;0.62;0.00;0.00;0.62;1.80;1.40;;;23.10;28.80;;;;;;2268126;61;20370;-61
2023/09/25 03:17:32;0.00;0.00;0.62;0.00;0.00;0.62;4.07;1.80;;;23.10;28.80;;;;;;2268006;61;20386;-58
2023/09/25 03:20:17;0.00;0.00;0.62;0.00;0.00;0.62;3.70;1.37;;;23.20;28.80;;;;;;2268718;61;20875;-55
2023/09/25 03:23:01;0.00;0.00;0.62;0.00;0.00;0.62;1.90;1.40;;;23.10;28.80;;;;;;2268690;61;20366;-55
2023/09/25 03:25:46;0.00;0.00;0.62;0.00;0.00;0.62;2.10;1.50;;;23.10;28.80;;;;;;2268502;61;20413;-55
2023/09/25 03:28:31;0.00;0.00;0.62;0.00;0.00;0.62;2.37;1.63;;;23.10;28.80;;;;;;2267862;61;20410;-60
2023/09/25 03:31:16;0.00;0.00;0.62;0.00;0.00;0.62;2.10;1.77;;;23.10;28.80;;;;;;2268200;61;20458;-56
2023/09/25 03:34:02;0.00;0.00;0.62;0.00;0.00;0.62;2.60;1.70;;;23.10;28.80;;;;;;2268256;61;20395;-56
2023/09/25 03:36:46;0.00;0.00;0.62;0.00;0.00;0.62;2.13;1.93;;;23.10;28.80;;;;;;2268639;61;20367;-56
2023/09/25 03:39:31;0.00;0.00;0.62;0.00;0.00;0.62;2.97;1.80;;;23.10;28.80;;;;;;2267732;61;20386;-54
2023/09/25 03:42:16;0.00;0.00;0.62;0.00;0.00;0.62;2.40;1.90;;;23.10;28.80;;;;;;2272103;61;20363;-58
2023/09/25 03:45:00;0.00;0.00;0.62;0.00;0.00;0.62;2.27;1.50;;;23.10;28.80;;;;;;2274671;61;20363;-61
2023/09/25 03:47:47;0.00;0.00;0.62;0.00;0.00;0.62;2.87;1.90;;;23.10;28.80;;;;;;2273925;61;20367;-61
2023/09/25 03:50:34;0.00;0.00;0.62;0.00;0.00;0.62;2.30;2.10;;;23.10;28.80;;;;;;2271211;61;20425;-62
2023/09/25 03:53:19;0.00;0.00;0.62;0.00;0.00;0.62;2.30;1.70;;;23.10;28.80;;;;;;2271606;61;20883;-61
2023/09/25 03:56:04;0.00;0.00;0.62;0.00;0.00;0.62;1.93;1.33;;;23.10;28.80;;;;;;2274181;61;20390;-59
2023/09/25 03:58:49;0.00;0.00;0.62;0.00;0.00;0.62;2.30;1.50;;;23.10;28.80;;;;;;2271147;61;20613;-60
2023/09/25 04:01:33;0.00;0.00;0.62;0.00;0.00;0.62;2.40;1.80;;;23.10;28.80;;;;;;2273382;61;20366;-59
2023/09/25 04:04:18;0.00;0.00;0.62;0.00;0.00;0.62;2.23;1.80;;;23.10;28.80;;;;;;2273294;61;20398;-59
2023/09/25 04:07:04;0.00;0.00;0.62;0.00;0.00;0.62;2.77;2.03;;;23.10;28.80;;;;;;2271031;61;20427;-60
2023/09/25 04:09:49;0.00;0.00;0.62;0.00;0.00;0.62;2.10;1.67;;;23.10;28.80;;;;;;2272980;61;20402;-61
2023/09/25 04:12:34;0.00;0.00;0.62;0.00;0.00;0.62;2.73;1.97;;;23.10;28.80;;;;;;2273317;61;20391;-60
2023/09/25 04:15:22;0.00;0.00;0.62;0.00;0.00;0.62;2.57;2.00;;;23.10;28.80;;;;;;2271023;61;20363;-59
2023/09/25 04:18:08;0.00;0.00;0.62;0.00;0.00;0.62;2.03;1.83;;;23.10;28.80;;;;;;2271616;61;20363;-62
2023/09/25 04:20:52;0.00;0.00;0.62;0.00;0.00;0.62;3.23;1.87;;;23.10;28.80;;;;;;2271972;61;20432;-57
2023/09/25 04:23:39;0.00;0.00;0.62;0.00;0.00;0.62;2.73;1.50;;;23.10;29.30;;;;;;2275048;61;20370;-62
2023/09/25 04:26:24;0.00;0.00;0.62;0.00;0.00;0.62;3.07;2.10;;;23.10;28.80;;;;;;2275057;61;20364;-63
2023/09/25 04:29:14;0.00;0.00;0.62;0.00;0.00;0.62;2.53;1.97;;;23.00;28.70;;;;;;2271831;61;20405;-62
2023/09/25 04:31:59;0.00;0.00;0.62;0.00;0.00;0.62;3.20;2.00;;;23.00;28.70;;;;;;2275078;61;20387;-62
2023/09/25 04:34:44;0.00;0.00;0.62;0.00;0.00;0.62;2.20;1.73;;;23.00;28.70;;;;;;2275764;61;20448;-62
2023/09/25 04:37:30;0.00;0.00;0.62;0.00;0.00;0.62;2.10;1.80;;;23.00;28.70;;;;;;2274981;61;20435;-60
2023/09/25 04:43:05;0.00;0.00;0.62;0.00;0.00;0.62;2.27;1.57;;;23.10;29.00;;;;;;2274761;61;20377;-60
2023/09/25 04:45:51;0.00;0.00;0.62;0.00;0.00;0.62;2.40;1.40;;;23.10;28.80;;;;;;2274714;61;20447;-62
2023/09/25 04:48:36;0.00;0.00;0.62;0.00;0.00;0.62;2.87;1.73;;;23.10;28.80;;;;;;2275349;61;20374;-61
2023/09/25 04:51:21;0.00;0.00;0.62;0.00;0.00;0.62;1.90;1.47;;;23.10;28.80;;;;;;2274760;61;20390;-62
2023/09/25 04:54:06;0.00;0.00;0.62;0.00;0.00;0.62;2.73;2.30;;;23.10;28.80;;;;;;2271688;61;20409;-61
2023/09/25 04:56:52;0.00;0.00;0.62;0.00;0.00;0.62;2.73;1.63;;;23.10;28.80;;;;;;2275718;61;20359;-59
2023/09/25 04:59:37;0.00;0.00;0.62;0.00;0.00;0.62;2.50;1.63;;;23.10;28.80;;;;;;2274968;61;20410;-62
2023/09/25 05:02:21;0.00;0.00;0.62;0.00;0.00;0.62;2.20;1.70;;;23.20;28.80;;;;;;2275527;61;20355;-60
2023/09/25 05:05:07;0.00;0.00;0.62;0.00;0.00;0.62;2.40;1.87;;;23.20;28.80;;;;;;2275723;61;20359;-59
2023/09/25 05:07:54;0.00;0.00;0.62;0.00;0.00;0.62;1.90;1.30;;;23.20;28.80;;;;;;2275511;61;20363;-62
2023/09/25 05:10:39;0.00;0.00;0.62;0.00;0.00;0.62;2.53;1.87;;;23.20;28.80;;;;;;2272303;61;20815;-62
2023/09/25 05:13:25;0.00;0.00;0.62;0.00;0.00;0.62;2.50;1.83;;;23.20;28.80;;;;;;2272053;61;20374;-59
2023/09/25 05:16:10;0.00;0.00;0.62;0.00;0.00;0.62;2.20;1.73;;;23.20;28.80;;;;;;2271060;61;20505;-60
2023/09/25 05:18:57;0.00;0.00;0.62;0.00;0.00;0.62;2.23;1.50;;;23.20;28.80;;;;;;2271219;61;20367;-59
2023/09/25 05:21:42;0.00;0.00;0.62;0.00;0.00;0.62;4.80;1.80;;;23.20;28.80;;;;;;2270594;61;20363;-57
2023/09/25 05:24:27;0.00;0.00;0.62;0.00;0.00;0.62;3.53;2.10;;;23.20;28.80;;;;;;2270807;61;20451;-60
2023/09/25 05:27:11;0.00;0.00;0.62;0.00;0.00;0.62;2.90;1.77;;;23.20;28.80;;;;;;2271273;61;20363;-62
2023/09/25 05:29:57;0.00;0.00;0.62;0.00;0.00;0.62;3.57;2.60;;;23.20;29.30;;;;;;2270688;61;20375;-58
2023/09/25 05:32:45;0.00;0.00;0.62;0.00;0.00;0.62;4.40;2.70;;;23.20;28.60;;;;;;2271184;61;20806;-58
2023/09/25 05:35:30;0.00;0.00;0.62;0.00;0.00;0.62;3.40;2.50;;;23.20;28.60;;;;;;2271510;61;20362;-61
2023/09/25 05:38:15;0.00;0.00;0.62;0.00;0.00;0.62;2.60;1.90;;;23.20;28.70;;;;;;2270175;61;20378;-59
2023/09/25 05:41:00;0.00;0.00;0.62;0.00;0.00;0.62;2.43;1.93;;;23.20;28.80;;;;;;2271255;61;20383;-57
2023/09/25 05:43:44;0.00;0.00;0.62;0.00;0.00;0.62;2.60;2.17;;;23.20;28.70;;;;;;2271543;61;20386;-61
2023/09/25 05:46:30;0.00;0.00;0.62;0.00;0.00;0.62;3.03;2.40;;;23.20;28.70;;;;;;2270828;61;20394;-58
2023/09/25 05:49:16;0.00;0.00;0.62;0.00;0.00;0.62;2.43;2.10;;;23.20;28.70;;;;;;2270683;61;20364;-60
2023/09/25 05:52:00;0.00;0.00;0.62;0.00;0.00;0.62;3.00;2.23;;;23.20;28.70;;;;;;2271183;61;20382;-56
2023/09/25 05:54:45;0.00;0.00;0.62;0.00;0.00;0.62;3.30;2.60;;;23.20;28.70;;;;;;2271165;61;20368;-56
2023/09/25 05:57:30;0.00;0.00;0.62;0.00;0.00;0.62;2.93;2.20;;;23.20;28.70;;;;;;2270870;61;20371;-54
2023/09/25 06:00:18;0.00;0.00;0.62;0.00;0.00;0.62;2.73;2.10;;;23.20;28.70;;;;;;2271084;61;20428;-57
2023/09/25 06:03:04;0.00;0.00;0.62;0.00;0.00;0.62;4.20;2.30;;;23.20;28.80;;;;;;2270899;61;20396;-56
2023/09/25 06:05:49;0.00;0.00;0.62;0.00;0.00;0.62;2.70;2.20;;;23.20;28.70;;;;;;2271283;61;20375;-58
2023/09/25 06:08:34;0.00;0.00;0.62;0.00;0.00;0.62;3.83;2.57;;;23.20;28.70;;;;;;2270810;61;20375;-60
2023/09/25 06:11:18;0.00;0.00;0.62;0.00;0.00;0.62;2.50;1.90;;;23.20;28.80;;;;;;2270911;61;20457;-55
2023/09/25 06:14:03;0.00;0.00;0.62;0.00;0.00;0.62;4.20;1.67;;;23.20;28.80;;;;;;2270941;61;20371;-59
2023/09/25 06:16:50;0.00;0.00;0.62;0.00;0.00;0.62;4.10;2.30;;;23.20;28.80;;;;;;2270812;61;20362;-60
2023/09/25 06:19:36;0.00;0.00;0.62;0.00;0.00;0.62;3.37;2.20;;;23.20;28.90;;;;;;2270567;61;20382;-58
2023/09/25 06:22:21;0.00;0.00;0.62;0.00;0.00;0.62;4.37;2.17;;;23.20;28.80;;;;;;2270900;61;20367;-59
2023/09/25 06:25:11;0.00;0.00;0.62;0.00;0.00;0.62;3.50;2.60;;;23.20;28.80;;;;;;2268117;61;20363;-59
2023/09/25 06:27:56;0.00;0.00;0.62;0.00;0.00;0.62;3.80;2.40;;;23.20;28.80;;;;;;2270682;61;20359;-59
2023/09/25 06:30:41;0.00;0.00;0.62;0.00;0.00;0.62;3.20;2.37;;;23.20;28.90;;;;;;2270835;61;20386;-58
2023/09/25 06:33:28;0.00;0.00;0.62;0.00;0.00;0.62;2.83;2.30;;;23.20;28.80;;;;;;2270697;61;20367;-59
2023/09/25 06:36:14;0.00;0.00;0.62;0.00;0.00;0.62;4.30;2.07;;;23.20;28.80;;;;;;2270860;61;20370;-59
2023/09/25 06:38:58;0.00;0.00;0.62;0.00;0.00;0.62;4.70;2.20;;;23.20;28.80;;;;;;2270568;61;20438;-58
2023/09/25 06:41:43;0.00;0.00;0.62;0.00;0.00;0.62;3.57;2.20;;;23.20;28.90;;;;;;2271221;61;20405;-56
2023/09/25 06:44:37;0.00;0.00;0.62;0.00;0.00;0.62;2.30;2.10;;;23.20;28.80;;;;;;2270676;61;20367;-58
2023/09/25 06:47:22;0.00;0.00;0.62;0.00;0.00;0.62;3.00;2.10;;;23.10;28.80;;;;;;2271132;61;20358;-58
2023/09/25 06:50:06;0.00;0.00;0.62;0.00;0.00;0.62;3.00;2.20;;;23.10;28.80;;;;;;2270573;61;20777;-59
2023/09/25 06:52:52;0.00;0.00;0.62;0.00;0.00;0.62;4.80;2.53;;;23.10;28.80;;;;;;2271225;61;20413;-57
2023/09/25 06:55:39;0.00;0.00;0.62;0.00;0.00;0.62;2.50;2.27;;;23.10;28.80;;;;;;2271263;61;20356;-60
2023/09/25 06:58:23;0.00;0.00;0.62;0.00;0.00;0.62;2.40;1.90;;;23.00;28.70;;;;;;2270299;61;20393;-59
2023/09/25 07:01:08;0.00;0.00;0.62;0.00;0.00;0.62;4.10;2.33;;;23.00;28.80;;;;;;2270801;61;20394;-57
2023/09/25 07:03:53;0.00;0.00;0.62;0.00;0.00;0.62;3.63;3.00;;;23.00;28.90;;;;;;2270877;61;20381;-57
2023/09/25 07:06:37;0.00;0.00;0.62;0.00;0.00;0.62;3.83;2.43;;;23.00;29.10;;;;;;2270643;61;20484;-57
2023/09/25 07:09:23;0.00;0.00;0.62;0.00;0.00;0.62;6.10;2.20;;;22.90;29.10;;;;;;2270636;61;20449;-59
2023/09/25 07:12:08;0.00;0.00;0.62;0.00;0.00;0.62;6.40;2.50;;;22.90;29.20;;;;;;2271107;61;20818;-59
2023/09/25 07:14:56;0.00;0.00;0.62;0.00;0.00;0.62;4.97;2.60;;;22.90;29.20;;;;;;2270828;61;20390;-59
2023/09/25 07:17:40;0.00;0.00;0.62;0.00;0.00;0.62;4.67;2.40;;;22.90;29.30;;;;;;2271050;61;20907;-59
2023/09/25 07:20:25;0.00;0.00;0.62;0.00;0.00;0.62;3.60;2.10;;;22.90;29.30;;;;;;2270727;61;20394;-57
2023/09/25 07:23:10;0.00;0.00;0.62;0.00;0.00;0.62;3.30;2.27;;;22.90;29.40;;;;;;2270965;61;20385;-60
2023/09/25 07:26:04;0.00;0.00;0.62;0.00;0.00;0.62;2.83;2.13;;;22.80;29.40;;;;;;2271023;61;20774;-60
2023/09/25 07:28:49;0.00;0.00;0.62;0.00;0.00;0.62;2.40;2.07;;;22.80;29.30;;;;;;2270000;61;20933;-58
2023/09/25 07:31:34;0.00;0.00;0.62;0.00;0.00;0.62;2.60;2.20;;;22.80;29.40;;;;;;2271085;61;20379;-59
2023/09/25 07:34:19;0.00;0.00;0.62;0.00;0.00;0.62;3.20;2.27;;;22.80;29.50;;;;;;2271237;61;20391;-57
2023/09/25 07:37:05;0.00;0.00;0.62;0.00;0.00;0.62;3.50;2.40;;;22.70;29.40;;;;;;2276466;57;20867;-54
2023/09/25 07:39:49;0.00;0.00;0.62;0.00;0.00;0.62;3.77;2.30;;;22.70;29.50;;;;;;2274932;61;20377;-54
2023/09/25 07:42:36;0.00;0.00;0.62;0.00;0.00;0.62;3.10;2.10;;;22.70;29.60;;;;;;2275159;60;20950;-57
2023/09/25 07:45:25;0.00;0.00;0.62;0.00;0.00;0.62;2.50;1.90;;;22.70;29.60;;;;;;2275368;60;20351;-55
2023/09/25 07:48:11;0.00;0.00;0.62;0.00;0.00;0.62;3.37;2.30;;;22.60;29.70;;;;;;2274555;60;20358;-58
2023/09/25 07:50:58;0.00;0.00;0.62;0.00;0.00;0.62;3.50;2.00;;;22.60;29.80;;;;;;2274504;60;20374;-57
2023/09/25 07:53:44;0.00;0.00;0.62;0.00;0.00;0.62;3.97;2.70;;;22.60;29.90;;;;;;2275006;60;20411;-56
2023/09/25 07:56:30;0.00;0.00;0.62;0.00;0.00;0.62;2.93;2.40;;;22.60;29.90;;;;;;2274797;61;20369;-59
2023/09/25 07:59:16;0.00;0.00;0.62;0.00;0.00;0.62;3.90;2.40;;;22.60;30.00;;;;;;2273292;60;20572;-58
2023/09/25 08:02:01;0.00;0.00;0.62;0.00;0.00;0.62;3.00;2.20;;;22.50;30.00;;;;;;2273424;60;20362;-59
2023/09/25 08:04:47;0.00;0.00;0.62;0.00;0.00;0.62;3.50;2.27;;;22.50;30.00;;;;;;2272872;60;20412;-56
2023/09/25 08:07:32;0.00;0.00;0.62;0.00;0.00;0.62;3.80;2.93;;;22.50;30.40;;;;;;2272789;60;20436;-58
2023/09/25 08:10:17;0.00;0.00;0.62;0.00;0.00;0.62;3.47;2.57;;;22.50;30.70;;;;;;2272652;60;20381;-61
2023/09/25 08:13:03;0.00;0.00;0.62;0.00;0.00;0.62;2.97;2.17;;;22.40;30.90;;;;;;2264641;61;20439;-57
2023/09/25 08:15:49;0.00;0.00;0.62;0.00;0.00;0.62;4.17;2.40;;;22.30;31.20;;;;;;2272534;60;20767;-54
2023/09/25 08:18:36;0.00;0.00;0.62;0.00;0.00;0.62;2.60;2.40;;;22.20;31.50;;;;;;2271603;60;21079;-55
2023/09/25 08:21:20;0.00;0.00;0.62;0.00;0.00;0.62;4.30;2.53;;;22.10;31.40;;;;;;2272330;60;20405;-54
2023/09/25 08:24:05;0.00;0.00;0.62;0.00;0.00;0.62;4.10;2.63;;;22.00;31.30;;;;;;2272592;60;20366;-53
2023/09/25 08:26:50;0.00;0.00;0.62;0.00;0.00;0.62;4.43;2.80;;;21.90;31.40;;;;;;2273167;60;20408;-57
2023/09/25 08:29:35;0.00;0.00;0.62;0.00;0.00;0.62;7.40;2.80;;;21.80;31.50;;;;;;2272200;60;20867;-53
2023/09/25 08:32:21;0.00;0.00;0.62;0.00;0.00;0.62;4.53;2.50;;;21.60;31.80;;;;;;2272370;60;20923;-55
2023/09/25 08:35:07;0.00;0.00;0.62;0.00;0.00;0.62;6.53;2.53;;;21.50;32.90;;;;;;2272300;60;20370;-51
2023/09/25 08:37:52;0.00;0.00;0.62;0.00;0.00;0.62;4.00;2.23;;;21.40;32.60;;;;;;2272303;60;20362;-55
2023/09/25 08:40:43;0.00;0.00;0.62;0.00;0.00;0.62;5.80;2.47;;;21.40;33.00;;;;;;2271790;60;20378;-57
2023/09/25 08:43:28;0.00;0.00;0.62;0.00;0.00;0.62;5.23;2.50;;;21.30;33.30;;;;;;2272066;60;20361;-61
2023/09/25 08:46:13;0.00;0.00;0.62;0.00;0.00;0.62;3.63;2.70;;;21.30;33.10;;;;;;2272543;60;20429;-63
2023/09/25 08:49:01;0.00;0.00;0.62;0.00;0.00;0.62;6.20;2.23;;;21.20;33.30;;;;;;2271398;60;20398;-61
2023/09/25 08:51:46;0.00;0.00;0.62;0.00;0.00;0.62;6.03;2.10;;;21.20;33.70;;;;;;2272132;60;20405;-68
2023/09/25 08:54:31;0.00;0.00;0.62;0.00;0.00;0.62;2.67;2.30;;;21.10;33.00;;;;;;2272419;60;20650;-63
2023/09/25 08:57:17;0.00;0.00;0.62;0.00;0.00;0.62;4.17;2.20;;;21.10;33.20;;;;;;2272032;60;20889;-58
2023/09/25 09:00:14;0.00;0.00;0.62;0.00;0.00;0.62;3.10;1.83;;;21.00;33.30;;;;;;2272023;61;20382;-65
2023/09/25 09:02:59;0.00;0.00;0.62;0.00;0.00;0.62;2.70;1.80;;;21.10;33.40;;;;;;2272059;60;20362;-62
2023/09/25 09:05:46;0.00;0.00;0.62;0.00;0.00;0.62;3.73;2.40;;;21.10;33.50;;;;;;2272217;60;20362;-61
2023/09/25 09:08:31;0.00;0.00;0.62;0.00;0.00;0.62;4.50;2.17;;;21.10;33.60;;;;;;2271318;61;20366;-59
2023/09/25 09:11:16;0.00;0.00;0.62;0.00;0.00;0.62;5.47;2.60;;;21.10;33.30;;;;;;2272216;61;20386;-55
2023/09/25 09:14:01;0.00;0.00;0.62;0.00;0.00;0.62;4.50;2.53;;;21.20;33.50;;;;;;2272989;60;20374;-63
2023/09/25 09:16:57;0.00;0.00;0.62;0.00;0.00;0.62;3.07;2.00;;;21.20;33.30;;;;;;2272912;61;20439;-64
2023/09/25 09:19:52;0.00;0.00;0.62;0.00;0.00;0.62;2.80;2.03;;;21.20;32.90;;;;;;2272485;61;20377;-65
2023/09/25 09:22:50;0.00;0.00;0.62;0.00;0.00;0.62;4.50;2.00;;;21.20;32.80;;;;;;2273097;61;20932;-62
2023/09/25 09:25:35;0.00;0.00;0.62;0.00;0.00;0.62;7.33;2.97;;;21.20;32.60;;;;;;2273057;61;20362;-61
2023/09/25 09:28:21;0.00;0.00;0.62;0.00;0.00;0.62;4.90;2.10;;;21.20;32.60;;;;;;2272610;61;20358;-61
2023/09/25 09:31:07;0.00;0.00;0.62;0.00;0.00;0.62;5.13;2.20;;;21.20;32.70;;;;;;2272968;61;20828;-60
2023/09/25 09:33:55;0.00;0.00;0.62;0.00;0.00;0.62;4.13;2.57;;;21.20;32.70;;;;;;2272840;61;20463;-62
2023/09/25 09:36:50;0.00;0.00;0.62;0.00;0.00;0.62;2.60;2.37;;;21.20;32.80;;;;;;2273105;61;20440;-61
2023/09/25 09:39:37;0.00;0.00;0.62;0.00;0.00;0.62;4.97;2.37;;;21.30;32.80;;;;;;2272630;61;20372;-57
2023/09/25 09:42:24;0.00;0.00;0.62;0.00;0.00;0.62;2.43;2.10;;;21.30;32.80;;;;;;2272880;61;20362;-63
2023/09/25 09:45:10;0.00;0.00;0.62;0.00;0.00;0.62;3.30;2.03;;;21.30;32.80;;;;;;2272248;61;20366;-61
2023/09/25 09:47:56;0.00;0.00;0.62;0.00;0.00;0.62;3.03;2.00;;;21.40;32.80;;;;;;2272827;60;20370;-65
2023/09/25 09:50:48;0.00;0.00;0.62;0.00;0.00;0.62;2.70;2.17;;;21.40;32.50;;;;;;2276876;60;20407;-63
2023/09/25 09:53:36;0.00;0.00;0.62;0.00;0.00;0.62;2.60;2.10;;;21.50;32.70;;;;;;2276944;60;20362;-61
2023/09/25 09:56:24;0.00;0.00;0.62;0.00;0.00;0.62;2.30;1.80;;;21.50;32.70;;;;;;2276814;60;20415;-60
2023/09/25 09:59:10;0.00;0.00;0.62;0.00;0.00;0.62;3.93;2.17;;;21.60;32.80;;;;;;2276522;60;20525;-60
2023/09/25 10:01:57;0.00;0.00;0.62;0.00;0.00;0.62;4.03;2.43;;;21.70;32.80;;;;;;2276731;60;20811;-59
2023/09/25 10:04:43;0.00;0.00;0.62;0.00;0.00;0.62;4.47;2.23;;;21.70;32.50;;;;;;2276790;60;20987;-58
2023/09/25 10:07:28;0.00;0.00;0.62;0.00;0.00;0.62;3.40;2.03;;;21.80;32.20;;;;;;2276990;60;20446;-57
2023/09/25 10:10:13;0.00;0.00;0.62;0.00;0.00;0.62;3.87;2.20;;;21.90;32.30;;;;;;2276586;60;21000;-65
2023/09/25 10:12:59;0.00;0.00;0.62;0.00;0.00;0.62;5.83;1.83;;;21.90;31.90;;;;;;2276808;60;20377;-57
2023/09/25 10:15:55;0.00;0.00;0.62;0.00;0.00;0.62;3.20;2.20;;;21.90;31.90;;;;;;2276818;60;20429;-63
2023/09/25 10:18:41;0.00;0.00;0.62;0.00;0.00;0.62;2.83;2.10;;;22.00;31.90;;;;;;2276319;60;20389;-60
2023/09/25 10:21:26;0.00;0.00;0.62;0.00;0.00;0.62;4.20;2.20;;;22.10;32.00;;;;;;2276610;60;20389;-60
2023/09/25 10:24:25;0.00;0.00;0.62;0.00;0.00;0.62;2.90;2.10;;;22.10;31.90;;;;;;2276410;60;20357;-60
2023/09/25 10:27:10;0.00;0.00;0.62;0.00;0.00;0.62;3.17;1.83;;;22.20;32.00;;;;;;2276658;60;20435;-58
2023/09/25 10:30:06;0.00;0.00;0.62;0.00;0.00;0.62;2.10;1.50;;;22.20;31.50;;;;;;2276721;60;20380;-62
2023/09/25 10:32:53;0.00;0.00;0.62;0.00;0.00;0.62;3.10;1.97;;;22.30;31.50;;;;;;2276356;60;20380;-61
2023/09/25 10:35:43;0.00;0.00;0.62;0.00;0.00;0.62;2.50;1.90;;;22.30;31.30;;;;;;2276961;60;20520;-59
2023/09/25 10:38:31;0.00;0.00;0.62;0.00;0.00;0.62;4.60;2.03;;;22.40;31.40;;;;;;2276511;60;20422;-61
2023/09/25 10:41:16;0.00;0.00;0.62;0.00;0.00;0.62;5.10;2.30;;;22.40;31.30;;;;;;2276589;60;20381;-59
2023/09/25 10:44:00;0.00;0.00;0.62;0.00;0.00;0.62;6.13;2.30;;;22.50;31.40;;;;;;2277045;60;20411;-55
2023/09/25 10:46:46;0.00;0.00;0.62;0.00;0.00;0.62;4.57;2.13;;;22.50;31.30;;;;;;2276875;60;20877;-61
2023/09/25 10:49:33;0.00;0.00;0.62;0.00;0.00;0.62;3.33;2.00;;;22.60;31.50;;;;;;2276331;60;20432;-61
2023/09/25 10:52:19;0.00;0.00;0.62;0.00;0.00;0.62;2.90;1.90;;;22.60;31.40;;;;;;2273281;60;20378;-62
2023/09/25 10:55:05;0.00;0.00;0.62;0.00;0.00;0.62;2.93;1.80;;;22.70;31.30;;;;;;2272418;61;20396;-59
2023/09/25 10:57:50;0.00;0.00;0.62;0.00;0.00;0.62;3.07;2.07;;;22.70;31.30;;;;;;2272637;61;20370;-60